»·PEaware :: N4462U KLAS-KMHV

N4462U :: KLAS-KMHV

FLIGHT INFORMATION

Flight Status: Arrived
Operator: Privately registered:
United States
More flights under this callsign
Pilot: Robert C. (26285)
Aircraft: SOCATA TBM-850
(TBM8)
More flights by this aircraft type
Origin: KLAS Harry Reid Intl
United States
Destination: KMHV Mojave
United States
More flights between these airports :: More routes between these airports
Route: LAS V538 GFS HEC V12 PMD
File this flight plan on PilotEdge
Remarks:
Altitude:
(Current/Filed)
24,000ft
Speed:
(Current/Filed)
309kts
Departed: 30-Nov-23 02:30 PM
Arrived: 30-Nov-23 03:33 PM
Distance/Time
Traveled:
159nm/1:03
Distance/Time
To Go:
Arrived

Flight Plot

Page will automatically refresh every two minutes.

Flight plan parsing failed; only flown route is shown


Map Options




Map Legend


Flown Route
Filed Route
Departure Airport
Arrival Airport
Navaid (VOR, NDB)
Fix

Horizontal Profiles

Position Reports

Time Latitude Longitude Heading Altitude Ground
Speed
30-Nov-23 13:57 36.080585 -115.170576 91 2180ft 0kts
30-Nov-23 13:58 36.080585 -115.170576 91 2180ft 0kts
30-Nov-23 13:59 36.080585 -115.170576 91 2180ft 0kts
30-Nov-23 14:05 36.080933 -115.170660 271 2179ft 0kts
30-Nov-23 14:07 36.080933 -115.170660 271 2179ft 0kts
30-Nov-23 14:07 36.080933 -115.170660 271 2179ft 0kts
30-Nov-23 14:08 36.080933 -115.170660 271 2179ft 0kts
30-Nov-23 14:09 36.080933 -115.170660 271 2179ft 0kts
30-Nov-23 14:10 36.080933 -115.170660 271 2179ft 0kts
30-Nov-23 14:11 36.080933 -115.170660 271 2179ft 0kts
30-Nov-23 14:12 36.080933 -115.170660 271 2179ft 0kts
30-Nov-23 14:13 36.080933 -115.170660 271 2179ft 0kts
30-Nov-23 14:14 36.080933 -115.170660 271 2179ft 0kts
30-Nov-23 14:15 36.080933 -115.170660 271 2179ft 0kts
30-Nov-23 14:16 36.080933 -115.170660 271 2179ft 0kts
30-Nov-23 14:17 36.080933 -115.170660 271 2179ft 0kts
30-Nov-23 14:18 36.080933 -115.170660 271 2179ft 0kts
30-Nov-23 14:19 36.080933 -115.170660 271 2179ft 0kts
30-Nov-23 14:20 36.080933 -115.170660 271 2179ft 0kts
30-Nov-23 14:21 36.080933 -115.170660 271 2179ft 0kts
30-Nov-23 14:22 36.080933 -115.170660 271 2179ft 0kts
30-Nov-23 14:23 36.080933 -115.170660 271 2179ft 0kts
30-Nov-23 14:24 36.080933 -115.170660 271 2179ft 0kts
30-Nov-23 14:25 36.081443 -115.170608 76 2176ft 7kts
30-Nov-23 14:26 36.079751 -115.170224 202 2181ft 15kts
30-Nov-23 14:27 36.078018 -115.170101 89 2180ft 0kts
30-Nov-23 14:28 36.078015 -115.169873 90 2181ft 10kts
30-Nov-23 14:29 36.092473 -115.160405 28 2426ft 129kts
30-Nov-23 14:30 36.114380 -115.173186 251 4514ft 135kts
30-Nov-23 14:31 36.101618 -115.219607 249 6460ft 145kts
30-Nov-23 14:32 36.083454 -115.263518 193 8366ft 154kts
30-Nov-23 14:33 36.039508 -115.260838 179 10200ft 161kts
30-Nov-23 14:34 35.994356 -115.257680 178 12009ft 163kts
30-Nov-23 14:35 35.948574 -115.253364 178 13802ft 166kts
30-Nov-23 14:36 35.902045 -115.248789 178 15545ft 169kts
30-Nov-23 14:37 35.854616 -115.244421 178 17310ft 172kts
30-Nov-23 14:38 35.805846 -115.239915 179 18827ft 184kts
30-Nov-23 14:39 35.752976 -115.235085 178 20204ft 195kts
30-Nov-23 14:40 35.700801 -115.229736 179 21843ft 189kts
30-Nov-23 14:41 35.647963 -115.224797 179 23275ft 192kts
30-Nov-23 14:42 35.591493 -115.219813 179 23940ft 224kts
30-Nov-23 14:43 35.522710 -115.213162 178 23957ft 265kts
30-Nov-23 14:44 35.446179 -115.206223 178 23945ft 284kts
30-Nov-23 14:45 35.366174 -115.198188 177 23929ft 290kts
30-Nov-23 14:46 35.285209 -115.190756 177 23930ft 290kts
30-Nov-23 14:47 35.205127 -115.183146 177 23924ft 287kts
30-Nov-23 14:48 35.131192 -115.203307 225 23924ft 283kts
30-Nov-23 14:49 35.101656 -115.292818 250 23935ft 288kts
30-Nov-23 14:50 35.078012 -115.386182 250 23948ft 288kts
30-Nov-23 14:51 35.053866 -115.479939 250 23947ft 289kts
30-Nov-23 14:52 35.029915 -115.573319 250 23956ft 289kts
30-Nov-23 14:53 35.005862 -115.666721 250 23955ft 289kts
30-Nov-23 14:54 34.981656 -115.760370 250 23950ft 289kts
30-Nov-23 14:55 34.957419 -115.853812 250 23936ft 289kts
30-Nov-23 14:56 34.933079 -115.947224 250 23936ft 290kts
30-Nov-23 14:57 34.908591 -116.040998 251 23923ft 290kts
30-Nov-23 14:58 34.884046 -116.134579 251 23931ft 290kts
30-Nov-23 14:59 34.859495 -116.227928 251 23918ft 290kts
30-Nov-23 15:00 34.834594 -116.321514 251 23908ft 289kts
30-Nov-23 15:01 34.809946 -116.414485 252 23916ft 288kts
30-Nov-23 15:02 34.792563 -116.509465 263 23918ft 288kts
30-Nov-23 15:03 34.783234 -116.605836 263 23915ft 287kts
30-Nov-23 15:04 34.774015 -116.702440 263 23909ft 286kts
30-Nov-23 15:05 34.764271 -116.798282 263 23928ft 286kts
30-Nov-23 15:06 34.754619 -116.894376 264 23929ft 286kts
30-Nov-23 15:07 34.745021 -116.993767 265 22948ft 311kts
30-Nov-23 15:08 34.735065 -117.099524 262 21195ft 316kts
30-Nov-23 15:09 34.722708 -117.205373 264 19605ft 318kts
30-Nov-23 15:10 34.711838 -117.312410 264 18055ft 317kts
30-Nov-23 15:11 34.700895 -117.417969 264 16371ft 313kts
30-Nov-23 15:12 34.690112 -117.518605 264 15771ft 290kts
30-Nov-23 15:13 34.679721 -117.618000 264 14294ft 298kts
30-Nov-23 15:14 34.669536 -117.715342 264 12764ft 284kts
30-Nov-23 15:15 34.660022 -117.804565 265 11422ft 245kts
30-Nov-23 15:16 34.651569 -117.880528 265 10127ft 210kts
30-Nov-23 15:17 34.644137 -117.948344 265 8482ft 193kts
30-Nov-23 15:18 34.636975 -118.010967 263 7197ft 187kts
30-Nov-23 15:19 34.642253 -118.070888 318 6207ft 191kts
30-Nov-23 15:20 34.688695 -118.103549 326 6011ft 191kts
30-Nov-23 15:21 34.734066 -118.134827 326 5985ft 179kts
30-Nov-23 15:22 34.777229 -118.164971 326 5988ft 179kts
30-Nov-23 15:23 34.820327 -118.194754 327 5993ft 168kts
30-Nov-23 15:24 34.863328 -118.191481 47 5980ft 191kts
30-Nov-23 15:25 34.891409 -118.134216 54 5461ft 192kts
30-Nov-23 15:26 34.918589 -118.079569 53 5243ft 193kts
30-Nov-23 15:27 34.959571 -118.051041 344 4641ft 161kts
30-Nov-23 15:28 34.994228 -118.072616 322 4007ft 127kts
30-Nov-23 15:29 35.017498 -118.098016 307 3548ft 105kts
30-Nov-23 15:30 35.038020 -118.122579 307 2878ft 103kts
30-Nov-23 15:31 35.053559 -118.141658 318 2728ft 52kts
30-Nov-23 15:32 35.057618 -118.148160 269 2749ft 0kts
30-Nov-23 15:33 35.057618 -118.148178 269 2749ft 0kts
30-Nov-23 15:34 35.057626 -118.150756 272 2754ft 8kts
30-Nov-23 15:35 35.057629 -118.153767 268 2760ft 11kts
30-Nov-23 15:36 35.057648 -118.157438 271 2767ft 5kts
30-Nov-23 15:37 35.057270 -118.157694 89 2768ft 0kts
30-Nov-23 15:38 35.057270 -118.157687 89 2768ft 0kts
30-Nov-23 15:39 35.057270 -118.157687 89 2768ft 0kts
30-Nov-23 15:40 35.057270 -118.157687 89 2768ft 0kts
30-Nov-23 15:41 35.057270 -118.157687 89 2796ft 0kts

Navigation Log

Ident Type
Flight plan parsing failed, navigation log unavailable